Gerber, California
Current Conditions -  °F | °C
As of 5:54 AM on Monday 20 Oct 2014 (Local Time) from KRBL Reporting Station
Clear Clear  
Wind Chill: 59°   Ceiling: Unl
Heat Index: 59°   Visibility: 10mi
Dew Point: 54°   Wind: 7mph
Humidity: 83%   Direction: 190°S
Pressure: 29.84"   Gusts: NA
Location:  40.06°N, 122.15°W
Report Text: KRBL 201254Z AUTO 19006KT 10SM CLR 15/12 A2984 RMK AO2 SLP100 T01500122
Loading
Personal Weather Stations






























Interactive Weather Map
Tropical Storm Tracking
New forecast layout! Learn more

10-Day Weather Forecast

Advertisements
Track Severe Weather on mobile